Tubuai, Tubuai Airport (NTAT)

NameTubuai Airport
CityTubuai
CountryFrench Polynesia
ICAONTAT
IATATUB
Altitude2 m
CoordinatesGoogle Map
Live Air TrafficLiveATC.net
METARNTAT 121900Z AUTO 23011KT 9999 SCT015/// BKN023/// OVC030/// 26/24 Q1010
2017-01-12 19:00:00 Wind: Southwest (230°) 5.66 m/s - Visibility: > 10000 m - Temperature: 26 °C - Dew point: 24 °C - Humidity: 88.8% - Pressure: 1010 hPa
Statistics

The table below shows the detailed information of all flights to/from Tubuai, Tubuai Airport (NTAT).